Time;durP1;ratioP1;P1;durP2;ratioP2;P2;SDS_P1;SDS_P2;PMS_P1;PMS_P2;Temp;Humidity;BMP_temperature;BMP_pressure;BME280_temperature;BME280_humidity;BME280_pressure;Samples;Min_cycle;Max_cycle;Signal;HPM_P1;HPM_P2
2022/12/03 00:00:13;;;;;;;30.17;10.25;;;3.30;99.90;;;;;;5014937;28;20033;-69
2022/12/03 00:02:39;;;;;;;23.63;9.05;;;3.10;99.90;;;;;;5014886;28;20026;-69
2022/12/03 00:05:05;;;;;;;28.52;10.45;;;3.10;99.90;;;;;;5015526;28;20042;-69
2022/12/03 00:07:30;;;;;;;25.30;9.70;;;3.20;99.90;;;;;;5013902;28;20141;-69
2022/12/03 00:09:56;;;;;;;23.85;9.35;;;3.20;99.90;;;;;;5014816;28;20026;-69
2022/12/03 00:12:21;;;;;;;18.95;8.23;;;3.40;99.90;;;;;;5013322;28;20061;-69
2022/12/03 00:14:47;;;;;;;19.73;7.93;;;3.20;99.90;;;;;;5014569;28;20029;-69
2022/12/03 00:17:12;;;;;;;20.98;8.13;;;3.30;99.90;;;;;;5014947;28;20022;-69
2022/12/03 00:19:38;;;;;;;19.02;8.15;;;3.30;99.90;;;;;;5014280;28;20034;-69
2022/12/03 00:22:03;;;;;;;19.08;8.02;;;3.50;99.90;;;;;;5014695;28;20025;-69
2022/12/03 00:24:29;;;;;;;19.55;7.60;;;3.50;99.90;;;;;;5013640;28;20021;-69
2022/12/03 00:26:54;;;;;;;19.90;6.90;;;3.20;99.90;;;;;;5013197;28;20085;-69
2022/12/03 00:29:20;;;;;;;16.40;6.80;;;3.20;99.90;;;;;;5013361;28;20033;-69
2022/12/03 00:31:45;;;;;;;16.05;6.40;;;3.20;99.90;;;;;;5014106;28;20462;-69
2022/12/03 00:34:11;;;;;;;20.95;6.53;;;3.10;99.90;;;;;;5013019;28;20021;-69
2022/12/03 00:36:37;;;;;;;15.48;6.40;;;3.10;99.90;;;;;;5014484;28;20048;-69
2022/12/03 00:39:02;;;;;;;14.75;6.03;;;3.30;99.90;;;;;;5013097;28;20022;-69
2022/12/03 00:41:28;;;;;;;15.80;6.65;;;3.30;99.90;;;;;;5012804;28;20026;-69
2022/12/03 00:43:56;;;;;;;16.80;6.55;;;3.20;99.90;;;;;;5014074;28;20017;-69
2022/12/03 00:46:23;;;;;;;17.17;6.80;;;3.30;99.90;;;;;;5014211;28;20109;-69
2022/12/03 00:48:48;;;;;;;13.55;6.00;;;3.40;99.90;;;;;;5013972;28;20034;-69
2022/12/03 00:51:14;;;;;;;12.30;5.38;;;3.30;99.90;;;;;;5014382;28;20033;-69
2022/12/03 00:53:39;;;;;;;15.18;6.45;;;3.40;99.90;;;;;;5013004;28;20032;-69
2022/12/03 00:56:05;;;;;;;11.52;5.65;;;3.40;99.90;;;;;;5013927;28;20033;-69
2022/12/03 00:58:31;;;;;;;18.45;6.18;;;3.30;99.90;;;;;;5012925;28;20030;-69
2022/12/03 01:00:57;;;;;;;13.20;5.78;;;3.40;99.90;;;;;;5012433;28;20037;-69
2022/12/03 01:03:22;;;;;;;13.25;5.68;;;3.10;99.90;;;;;;5012576;28;20057;-69
2022/12/03 01:05:48;;;;;;;12.88;5.65;;;3.00;99.90;;;;;;5012786;28;20041;-69
2022/12/03 01:08:13;;;;;;;13.50;5.70;;;3.20;99.90;;;;;;5013712;28;20029;-69
2022/12/03 01:10:39;;;;;;;13.60;5.22;;;3.30;99.90;;;;;;5013988;28;20026;-69
2022/12/03 01:13:04;;;;;;;11.80;5.20;;;3.20;99.90;;;;;;5012381;28;20061;-69
2022/12/03 01:15:30;;;;;;;11.93;5.82;;;3.00;99.90;;;;;;5012542;28;20056;-69
2022/12/03 01:17:56;;;;;;;12.50;6.00;;;3.00;99.90;;;;;;5013124;28;20033;-69
2022/12/03 01:20:21;;;;;;;12.70;5.32;;;3.10;99.90;;;;;;5012581;28;20030;-69
2022/12/03 01:22:47;;;;;;;13.57;5.68;;;3.00;99.90;;;;;;5013884;28;20022;-69
2022/12/03 01:25:12;;;;;;;14.07;5.25;;;3.10;99.90;;;;;;5013596;28;20370;-69
2022/12/03 01:27:38;;;;;;;11.50;4.95;;;3.00;99.90;;;;;;5013593;28;20044;-69
2022/12/03 01:30:04;;;;;;;13.40;5.70;;;3.10;99.90;;;;;;5013700;28;20066;-69
2022/12/03 01:32:30;;;;;;;13.70;5.85;;;3.10;99.90;;;;;;5013441;28;20029;-69
2022/12/03 01:34:56;;;;;;;13.95;5.50;;;3.10;99.90;;;;;;5012538;28;20034;-69
2022/12/03 01:37:24;;;;;;;12.38;5.15;;;3.10;99.90;;;;;;5012181;28;20034;-69
2022/12/03 01:39:49;;;;;;;12.60;5.38;;;2.90;99.90;;;;;;5013785;28;20396;-69
2022/12/03 01:42:22;;;;;;;10.85;4.95;;;3.00;99.90;;;;;;5012988;28;20026;-69
2022/12/03 01:44:51;;;;;;;10.77;5.10;;;3.20;99.90;;;;;;5013748;28;20022;-69
2022/12/03 01:47:19;;;;;;;14.15;5.35;;;3.30;99.90;;;;;;5013716;28;20014;-69
2022/12/03 01:49:47;;;;;;;9.30;4.70;;;3.20;99.90;;;;;;5014441;28;20064;-69
2022/12/03 01:52:15;;;;;;;11.35;5.40;;;3.20;99.90;;;;;;5015487;28;20025;-69
2022/12/03 01:54:52;;;;;;;13.95;6.22;;;3.00;99.90;;;;;;5019175;28;20026;-68
2022/12/03 01:57:29;;;;;;;10.77;5.10;;;3.10;99.90;;;;;;5020378;28;20022;-68
2022/12/03 01:59:57;;;;;;;13.45;5.22;;;3.10;99.90;;;;;;5016468;28;20021;-69
2022/12/03 02:02:24;;;;;;;15.15;5.93;;;3.20;99.90;;;;;;5013439;28;20022;-69
2022/12/03 02:04:52;;;;;;;13.63;4.63;;;3.20;99.90;;;;;;5016525;28;20053;-70
2022/12/03 02:07:25;;;;;;;12.93;5.13;;;3.30;99.90;;;;;;5015741;28;20018;-69
2022/12/03 02:09:51;;;;;;;10.90;5.28;;;3.10;99.90;;;;;;5017456;28;20076;-69
2022/12/03 02:12:20;;;;;;;12.35;5.40;;;3.20;99.90;;;;;;5015585;28;20401;-69
2022/12/03 02:14:46;;;;;;;10.05;5.15;;;3.10;99.90;;;;;;5015580;28;20133;-69
2022/12/03 02:17:12;;;;;;;9.88;5.13;;;3.20;99.90;;;;;;5015907;28;20065;-69
2022/12/03 02:19:37;;;;;;;13.63;5.72;;;3.30;99.90;;;;;;5017449;28;20061;-69
2022/12/03 02:22:14;;;;;;;15.15;6.07;;;3.10;99.90;;;;;;5016910;28;20025;-69
2022/12/03 02:24:54;;;;;;;12.50;5.57;;;3.10;99.90;;;;;;5015373;28;20014;-69
2022/12/03 02:27:20;;;;;;;13.50;5.80;;;3.20;99.90;;;;;;5016623;28;20014;-69
2022/12/03 02:29:45;;;;;;;13.15;5.75;;;3.20;99.90;;;;;;5015465;28;20064;-69
2022/12/03 02:32:11;;;;;;;12.88;5.35;;;3.20;99.90;;;;;;5016497;28;20057;-69
2022/12/03 02:34:41;;;;;;;11.75;5.43;;;3.30;99.90;;;;;;5016433;28;20022;-69
2022/12/03 02:37:31;;;;;;;11.20;4.82;;;3.20;99.90;;;;;;5015181;28;20034;-69
2022/12/03 02:40:02;;;;;;;10.65;4.88;;;3.20;99.90;;;;;;5015913;28;20084;-69
2022/12/03 02:42:34;;;;;;;16.25;5.68;;;3.00;99.90;;;;;;5015927;28;20030;-69
2022/12/03 02:45:23;;;;;;;;;;;2.90;99.90;;;;;;5015482;28;20469;-69
2022/12/03 02:47:56;;;;;;;12.20;5.28;;;2.90;99.90;;;;;;5009655;28;19905;-69
2022/12/03 02:50:26;;;;;;;13.40;5.28;;;3.10;99.90;;;;;;5016358;28;20038;-69
2022/12/03 02:52:54;;;;;;;8.07;4.45;;;3.00;99.90;;;;;;5016121;28;20068;-69
2022/12/03 02:55:20;;;;;;;10.98;4.70;;;3.00;99.90;;;;;;5015933;28;20034;-69
2022/12/03 02:57:47;;;;;;;11.38;5.30;;;3.10;99.90;;;;;;5014752;28;20026;-69
2022/12/03 03:00:14;;;;;;;12.05;5.63;;;3.10;99.90;;;;;;5016138;28;20160;-69
2022/12/03 03:02:41;;;;;;;11.35;5.22;;;2.80;99.90;;;;;;5014643;28;20028;-69
2022/12/03 03:05:09;;;;;;;11.18;4.68;;;2.90;99.90;;;;;;5014565;28;20026;-69
2022/12/03 03:07:35;;;;;;;11.10;5.00;;;2.80;99.90;;;;;;5016101;28;20108;-69
2022/12/03 03:10:03;;;;;;;10.23;4.47;;;2.80;99.90;;;;;;5015893;28;20069;-69
2022/12/03 03:12:29;;;;;;;11.65;5.20;;;2.90;99.90;;;;;;5015688;28;20026;-69
2022/12/03 03:14:55;;;;;;;11.52;5.10;;;2.90;99.90;;;;;;5014726;28;20033;-69
2022/12/03 03:17:20;;;;;;;11.32;5.15;;;2.80;99.90;;;;;;5014504;28;20026;-69
2022/12/03 03:19:46;;;;;;;11.43;4.60;;;2.80;99.90;;;;;;5014508;28;20026;-69
2022/12/03 03:22:11;;;;;;;12.15;4.82;;;2.80;99.90;;;;;;5014278;28;20030;-69
2022/12/03 03:24:37;;;;;;;13.93;5.75;;;2.80;99.90;;;;;;5014233;28;20033;-69
2022/12/03 03:27:20;;;;;;;11.70;5.43;;;2.90;99.90;;;;;;5015416;28;20030;-69
2022/12/03 03:29:45;;;;;;;12.40;5.20;;;2.90;99.90;;;;;;5014973;28;20021;-69
2022/12/03 03:32:11;;;;;;;12.38;5.15;;;2.90;99.90;;;;;;5015397;28;20044;-69
2022/12/03 03:34:37;;;;;;;12.32;5.18;;;3.00;99.90;;;;;;5014445;28;20025;-69
2022/12/03 03:37:02;;;;;;;9.55;5.10;;;2.90;99.90;;;;;;5014545;28;20026;-69
2022/12/03 03:39:28;;;;;;;9.68;4.53;;;2.80;99.90;;;;;;5013861;28;20069;-69
2022/12/03 03:41:53;;;;;;;12.02;5.70;;;2.90;99.90;;;;;;5014014;28;20120;-69
2022/12/03 03:44:19;;;;;;;10.50;4.97;;;2.90;99.90;;;;;;5013936;28;20080;-69
2022/12/03 03:46:44;;;;;;;15.20;5.70;;;2.90;99.90;;;;;;5014656;28;20036;-69
2022/12/03 03:49:11;;;;;;;9.65;4.13;;;2.80;99.90;;;;;;5015463;28;20373;-69
2022/12/03 03:51:38;;;;;;;10.45;4.90;;;2.80;99.90;;;;;;5015052;28;20060;-69
2022/12/03 03:54:05;;;;;;;9.40;5.10;;;2.80;99.90;;;;;;5014966;28;20029;-69
2022/12/03 03:56:32;;;;;;;10.20;4.30;;;2.90;99.90;;;;;;5013692;28;20022;-69
2022/12/03 03:58:58;;;;;;;9.38;4.35;;;2.90;99.90;;;;;;5013635;28;20018;-69
2022/12/03 04:01:23;;;;;;;13.85;5.10;;;2.80;99.90;;;;;;5013784;28;20021;-69
2022/12/03 04:03:49;;;;;;;10.48;4.90;;;2.90;99.90;;;;;;5013741;28;20473;-69
2022/12/03 04:06:15;;;;;;;12.40;5.10;;;2.90;99.90;;;;;;5013436;28;20026;-69
2022/12/03 04:08:41;;;;;;;11.05;5.15;;;2.80;99.90;;;;;;5015017;28;20033;-69
2022/12/03 04:13:50;;;;;;;12.50;5.63;;;3.00;99.90;;;;;;5015227;28;20060;-69
2022/12/03 04:16:16;;;;;;;13.88;5.38;;;3.10;99.90;;;;;;5014624;28;20412;-69
2022/12/03 04:18:41;;;;;;;14.57;5.47;;;3.10;99.90;;;;;;5013930;28;20089;-69
2022/12/03 04:23:59;;;;;;;8.45;4.88;;;2.90;99.90;;;;;;5014807;28;20101;-69
2022/12/03 04:29:09;;;;;;;12.25;5.60;;;2.80;99.90;;;;;;5014877;28;20029;-69
2022/12/03 04:37:04;;;;;;;12.93;5.55;;;3.00;99.90;;;;;;5014779;28;20172;-69
2022/12/03 04:39:29;;;;;;;12.73;6.00;;;3.10;99.90;;;;;;5013621;28;20065;-69
2022/12/03 04:41:55;;;;;;;14.57;5.75;;;2.80;99.90;;;;;;5014087;28;20100;-69
2022/12/03 04:44:32;;;;;;;12.63;6.05;;;2.90;99.90;;;;;;5013121;28;20461;-69
2022/12/03 04:47:13;;;;;;;14.50;5.70;;;2.80;99.90;;;;;;5012860;28;20108;-69
2022/12/03 04:49:41;;;;;;;13.88;5.60;;;2.80;99.90;;;;;;5013234;28;20022;-69
2022/12/03 04:52:08;;;;;;;13.23;5.88;;;3.00;99.90;;;;;;5014575;28;20026;-69
2022/12/03 04:54:34;;;;;;;11.57;5.18;;;3.00;99.90;;;;;;5014183;28;20022;-69
2022/12/03 04:57:00;;;;;;;14.50;6.20;;;2.90;99.90;;;;;;5014195;28;20032;-69
2022/12/03 04:59:26;;;;;;;15.10;6.47;;;2.90;99.90;;;;;;5013134;28;20026;-69
2022/12/03 05:01:51;;;;;;;13.05;6.20;;;3.00;99.90;;;;;;5012528;28;20025;-69
2022/12/03 05:04:17;;;;;;;15.50;6.32;;;2.90;99.90;;;;;;5014142;28;20018;-69
2022/12/03 05:06:43;;;;;;;9.80;4.93;;;2.80;99.90;;;;;;5012483;28;20478;-69
2022/12/03 05:09:09;;;;;;;14.23;6.05;;;2.70;99.90;;;;;;5012445;28;20025;-69
2022/12/03 05:11:34;;;;;;;15.07;6.65;;;2.80;99.90;;;;;;5012428;28;20021;-69
2022/12/03 05:14:00;;;;;;;14.52;5.78;;;2.60;99.90;;;;;;5013768;28;20029;-69
2022/12/03 05:16:25;;;;;;;17.05;6.93;;;2.70;99.90;;;;;;5012520;28;20032;-69
2022/12/03 05:18:51;;;;;;;14.30;6.22;;;2.90;99.90;;;;;;5013588;28;20105;-69
2022/12/03 05:21:16;;;;;;;14.52;6.43;;;2.60;99.90;;;;;;5012287;28;20034;-69
2022/12/03 05:23:43;;;;;;;12.98;5.78;;;2.70;99.90;;;;;;5013563;28;20022;-69
2022/12/03 05:26:09;;;;;;;15.73;6.85;;;2.80;99.90;;;;;;5013561;28;20022;-69
2022/12/03 05:28:34;;;;;;;14.43;6.10;;;2.80;99.90;;;;;;5012371;28;20022;-69
2022/12/03 05:31:00;;;;;;;16.45;6.60;;;3.00;99.90;;;;;;5012217;28;20029;-69
2022/12/03 05:33:26;;;;;;;16.98;6.80;;;2.90;99.90;;;;;;5013491;28;20096;-69
2022/12/03 05:35:51;;;;;;;13.70;6.32;;;2.80;99.90;;;;;;5012447;28;20034;-69
2022/12/03 05:38:17;;;;;;;13.57;5.90;;;2.70;99.90;;;;;;5014361;28;20022;-69
2022/12/03 05:40:42;;;;;;;18.60;7.75;;;2.80;99.90;;;;;;5017160;28;20121;-69
2022/12/03 05:43:08;;;;;;;13.52;6.28;;;2.70;99.90;;;;;;5017448;28;20026;-69
2022/12/03 05:45:39;;;;;;;15.35;6.63;;;2.80;99.90;;;;;;5016973;28;20046;-69
2022/12/03 05:48:08;;;;;;;16.67;7.00;;;2.60;99.90;;;;;;5017295;28;20022;-69
2022/12/03 05:50:36;;;;;;;16.67;6.90;;;2.60;99.90;;;;;;5018028;28;20046;-70
2022/12/03 05:53:02;;;;;;;16.17;7.78;;;2.50;99.90;;;;;;5017261;28;20032;-70
2022/12/03 05:55:28;;;;;;;20.33;8.27;;;2.50;99.90;;;;;;5016013;28;20032;-70
2022/12/03 05:57:54;;;;;;;19.88;7.38;;;2.40;99.90;;;;;;5015888;28;20026;-70
2022/12/03 06:00:25;;;;;;;15.90;7.70;;;2.50;99.90;;;;;;5015967;28;20053;-70
2022/12/03 06:02:52;;;;;;;14.80;7.32;;;2.40;99.90;;;;;;5015800;28;20025;-70
2022/12/03 06:05:20;;;;;;;15.15;6.72;;;2.60;99.90;;;;;;5017080;28;20037;-70
2022/12/03 06:07:48;;;;;;;20.10;7.95;;;2.70;99.90;;;;;;5016912;28;20073;-70
2022/12/03 06:10:16;;;;;;;17.90;7.65;;;2.40;99.90;;;;;;5017004;28;20034;-70
2022/12/03 06:12:42;;;;;;;21.23;8.75;;;2.40;99.90;;;;;;5015769;28;20037;-70
2022/12/03 06:15:09;;;;;;;17.63;7.95;;;2.50;99.90;;;;;;5017388;28;20026;-70
2022/12/03 06:17:35;;;;;;;21.98;8.25;;;2.40;99.90;;;;;;5015580;28;20076;-70
2022/12/03 06:20:01;;;;;;;21.92;8.38;;;2.40;99.90;;;;;;5015457;28;20121;-70
2022/12/03 06:22:26;;;;;;;18.67;7.78;;;2.30;99.90;;;;;;5016736;28;20033;-70
2022/12/03 06:24:52;;;;;;;20.48;8.43;;;2.40;99.90;;;;;;5015654;28;20120;-70
2022/12/03 06:27:18;;;;;;;20.17;7.97;;;2.40;99.90;;;;;;5016154;28;20080;-70
2022/12/03 06:29:43;;;;;;;20.20;7.50;;;2.30;99.90;;;;;;5015248;28;20022;-70
2022/12/03 06:32:09;;;;;;;18.25;8.13;;;2.30;99.90;;;;;;5016707;28;20034;-70
2022/12/03 06:34:35;;;;;;;18.90;7.35;;;2.50;99.90;;;;;;5016430;28;20584;-70
2022/12/03 06:37:00;;;;;;;18.52;7.70;;;2.60;99.90;;;;;;5015096;28;20112;-70
2022/12/03 06:39:26;;;;;;;22.88;8.77;;;2.70;99.90;;;;;;5016546;28;20029;-70
2022/12/03 06:41:52;;;;;;;20.15;7.72;;;2.90;99.90;;;;;;5016866;28;20021;-70
2022/12/03 06:44:17;;;;;;;22.33;8.98;;;2.90;99.90;;;;;;5015090;28;20543;-70
2022/12/03 06:46:43;;;;;;;23.50;9.05;;;2.80;99.90;;;;;;5014964;28;20065;-70
2022/12/03 06:49:08;;;;;;;27.70;9.57;;;2.70;99.90;;;;;;5015486;28;20022;-70
2022/12/03 06:51:34;;;;;;;27.80;10.02;;;2.60;99.90;;;;;;5016356;28;20171;-70
2022/12/03 06:54:01;;;;;;;20.70;8.98;;;2.80;99.90;;;;;;5015697;28;20026;-70
2022/12/03 06:56:26;;;;;;;20.80;9.38;;;2.80;99.90;;;;;;5015086;28;20065;-70
2022/12/03 06:58:52;;;;;;;27.17;9.13;;;2.80;99.90;;;;;;5015999;28;20061;-70
2022/12/03 07:01:19;;;;;;;24.23;9.55;;;2.90;99.90;;;;;;5016136;28;20021;-70
2022/12/03 07:03:44;;;;;;;22.52;9.07;;;3.10;99.90;;;;;;5015587;28;20049;-70
2022/12/03 07:06:10;;;;;;;23.92;9.15;;;3.00;99.90;;;;;;5015940;28;20066;-70
2022/12/03 07:08:35;;;;;;;21.13;9.10;;;3.10;99.90;;;;;;5015452;28;20381;-70
2022/12/03 07:11:01;;;;;;;25.27;9.68;;;3.20;99.90;;;;;;5014872;28;20022;-70
2022/12/03 07:13:26;;;;;;;22.67;9.27;;;3.20;99.90;;;;;;5016075;28;20037;-70
2022/12/03 07:15:52;;;;;;;25.65;9.75;;;3.10;99.90;;;;;;5014559;28;20026;-70
2022/12/03 07:18:17;;;;;;;29.75;10.88;;;3.00;99.90;;;;;;5014451;28;20030;-70
2022/12/03 07:20:43;;;;;;;25.92;11.02;;;3.10;99.90;;;;;;5015544;28;20037;-70
2022/12/03 07:23:34;;;;;;;30.10;10.68;;;3.10;99.90;;;;;;5015059;28;20033;-70
2022/12/03 07:25:59;;;;;;;24.27;9.67;;;3.20;99.90;;;;;;5015391;28;20014;-70
2022/12/03 07:28:25;;;;;;;25.23;9.95;;;3.10;99.90;;;;;;5015483;28;20052;-70
2022/12/03 07:30:51;;;;;;;27.08;9.82;;;3.20;99.90;;;;;;5015218;28;20052;-70
2022/12/03 07:33:16;;;;;;;28.45;10.65;;;3.20;99.90;;;;;;5014540;28;20029;-70
2022/12/03 07:35:42;;;;;;;25.70;10.25;;;3.30;99.90;;;;;;5015160;28;20022;-70
2022/12/03 07:38:07;;;;;;;27.25;10.90;;;3.30;99.90;;;;;;5015244;28;20021;-70
2022/12/03 07:40:33;;;;;;;24.73;10.38;;;3.40;99.90;;;;;;5014098;28;20054;-70
2022/12/03 07:42:58;;;;;;;25.05;9.95;;;3.20;99.90;;;;;;5015477;28;20072;-70
2022/12/03 07:45:24;;;;;;;21.30;9.95;;;3.20;99.90;;;;;;5014739;28;20346;-70
2022/12/03 07:47:49;;;;;;;28.77;10.73;;;3.10;99.90;;;;;;5014178;28;20022;-70
2022/12/03 07:50:15;;;;;;;26.40;11.18;;;2.90;99.90;;;;;;5013705;28;20038;-70
2022/12/03 07:52:40;;;;;;;26.52;10.93;;;2.90;99.90;;;;;;5013684;28;20124;-70
2022/12/03 07:55:06;;;;;;;27.85;10.40;;;2.90;99.90;;;;;;5013706;28;20153;-69
2022/12/03 07:57:32;;;;;;;28.58;10.30;;;3.00;99.90;;;;;;5014912;28;20079;-70
2022/12/03 07:59:57;;;;;;;33.65;11.15;;;3.00;99.90;;;;;;5014657;28;20034;-70
2022/12/03 08:02:23;;;;;;;34.38;11.57;;;2.90;99.90;;;;;;5013482;28;20092;-70
2022/12/03 08:04:48;;;;;;;29.52;11.18;;;2.90;99.90;;;;;;5015153;28;20135;-70
2022/12/03 08:07:14;;;;;;;29.20;11.70;;;2.80;99.90;;;;;;5013531;28;20101;-70
2022/12/03 08:09:40;;;;;;;30.65;10.88;;;2.70;99.90;;;;;;5013306;28;20022;-70
2022/12/03 08:12:16;;;;;;;34.10;11.48;;;2.70;99.90;;;;;;5013635;28;20060;-70
2022/12/03 08:14:42;;;;;;;30.42;10.07;;;2.70;99.90;;;;;;5014268;28;20029;-71
2022/12/03 08:17:12;;;;;;;33.22;11.60;;;2.70;99.90;;;;;;5014600;28;20029;-70
2022/12/03 08:19:37;;;;;;;32.67;11.68;;;2.70;99.90;;;;;;5014752;28;20030;-70
2022/12/03 08:22:11;;;;;;;31.08;11.95;;;2.80;99.90;;;;;;5014325;28;20032;-69
2022/12/03 08:24:37;;;;;;;34.10;11.85;;;2.80;99.90;;;;;;5013218;28;20428;-70
2022/12/03 08:27:13;;;;;;;26.33;9.60;;;2.80;99.90;;;;;;5013114;28;20029;-70
2022/12/03 08:29:39;;;;;;;30.90;11.52;;;2.90;99.90;;;;;;5013109;28;20029;-70
2022/12/03 08:32:08;;;;;;;35.42;12.02;;;2.90;99.90;;;;;;5013171;28;20025;-70
2022/12/03 08:34:39;;;;;;;33.53;11.98;;;2.70;99.90;;;;;;5014399;28;20036;-69
2022/12/03 08:37:17;;;;;;;36.05;12.13;;;2.70;99.90;;;;;;5014336;28;20026;-70
2022/12/03 08:39:47;;;;;;;31.20;11.35;;;2.80;99.90;;;;;;5013063;28;20054;-69
2022/12/03 08:42:42;;;;;;;30.00;11.35;;;2.70;99.90;;;;;;5013027;28;20028;-70
2022/12/03 08:45:23;;;;;;;33.65;11.50;;;2.70;99.90;;;;;;5014122;28;20025;-70
2022/12/03 08:47:48;;;;;;;28.00;10.80;;;3.00;99.90;;;;;;5013742;28;20021;-70
2022/12/03 08:50:29;;;;;;;32.35;11.30;;;2.80;99.90;;;;;;5012518;28;20045;-70
2022/12/03 08:53:07;;;;;;;30.95;12.27;;;2.80;99.90;;;;;;5012612;28;20096;-70
2022/12/03 08:55:36;;;;;;;33.13;12.57;;;3.00;99.90;;;;;;5012841;28;20036;-69
2022/12/03 08:58:41;;;;;;;36.40;13.00;;;2.80;99.90;;;;;;5012642;28;20056;-70
2022/12/03 09:01:09;;;;;;;37.10;11.55;;;2.70;99.90;;;;;;5012903;28;20096;-70
2022/12/03 09:03:36;;;;;;;31.83;12.05;;;2.90;99.90;;;;;;5014179;28;20053;-70
2022/12/03 09:06:02;;;;;;;32.47;11.27;;;3.00;99.90;;;;;;5013536;28;20022;-70
2022/12/03 09:08:28;;;;;;;32.28;12.10;;;3.00;99.90;;;;;;5013030;28;20080;-70
2022/12/03 09:10:54;;;;;;;33.03;12.25;;;2.90;99.90;;;;;;5012822;28;20472;-70
2022/12/03 09:13:19;;;;;;;36.03;13.07;;;2.90;99.90;;;;;;5012371;28;20034;-70
2022/12/03 09:15:45;;;;;;;32.80;11.55;;;3.00;99.90;;;;;;5013712;28;20026;-70
2022/12/03 09:18:13;;;;;;;29.90;11.85;;;3.10;99.90;;;;;;5012366;28;20120;-70
2022/12/03 09:20:38;;;;;;;34.17;12.43;;;3.10;99.90;;;;;;5012209;28;20041;-70
2022/12/03 09:23:04;;;;;;;33.92;12.40;;;3.10;99.90;;;;;;5012439;28;20018;-70
2022/12/03 09:25:30;;;;;;;32.50;11.38;;;3.10;99.90;;;;;;5012640;28;20090;-70
2022/12/03 09:27:55;;;;;;;33.38;11.85;;;2.80;99.90;;;;;;5013726;28;20064;-70
2022/12/03 09:30:21;;;;;;;32.55;12.45;;;2.90;99.90;;;;;;5011989;28;20113;-70
2022/12/03 09:32:46;;;;;;;29.17;11.10;;;3.00;99.90;;;;;;5013008;28;20029;-70
2022/12/03 09:35:12;;;;;;;34.92;12.40;;;3.10;99.90;;;;;;5013476;28;20022;-70
2022/12/03 09:37:37;;;;;;;41.63;13.98;;;3.00;99.90;;;;;;5012216;28;20171;-70
2022/12/03 09:40:04;;;;;;;35.67;12.85;;;3.10;99.90;;;;;;5012031;28;20033;-70
2022/12/03 09:42:30;;;;;;;30.60;11.45;;;3.20;99.90;;;;;;5013524;28;20018;-70
2022/12/03 09:44:55;;;;;;;30.73;11.55;;;2.90;99.90;;;;;;5013739;28;20059;-70
2022/12/03 09:47:21;;;;;;;32.58;12.68;;;3.10;99.90;;;;;;5012093;28;20022;-70
2022/12/03 09:49:47;;;;;;;36.33;13.55;;;3.20;99.90;;;;;;5013236;28;20045;-70
2022/12/03 09:52:23;;;;;;;33.50;11.98;;;3.10;99.90;;;;;;5013428;28;20037;-70
2022/12/03 09:54:49;;;;;;;37.65;12.68;;;3.10;99.90;;;;;;5013034;28;20113;-70
2022/12/03 09:57:16;;;;;;;32.30;11.80;;;3.20;99.90;;;;;;5013306;28;20057;-70
2022/12/03 09:59:42;;;;;;;39.13;13.35;;;3.20;99.90;;;;;;5012048;28;20080;-70
2022/12/03 10:02:22;;;;;;;37.28;13.20;;;3.20;99.90;;;;;;5012282;28;20034;-70
2022/12/03 10:04:48;;;;;;;34.20;13.25;;;3.00;99.90;;;;;;5013934;28;20097;-70
2022/12/03 10:07:14;;;;;;;36.83;12.63;;;3.10;99.90;;;;;;5013653;28;20054;-70
2022/12/03 10:09:40;;;;;;;36.00;12.02;;;3.20;99.90;;;;;;5013416;28;20022;-70
2022/12/03 10:12:13;;;;;;;32.03;12.25;;;3.20;99.90;;;;;;5012131;28;20418;-70
2022/12/03 10:14:40;;;;;;;33.65;12.90;;;3.30;99.90;;;;;;5012103;28;20033;-70
2022/12/03 10:17:06;;;;;;;39.85;13.40;;;3.30;99.90;;;;;;5013511;28;20041;-70
2022/12/03 10:19:34;;;;;;;40.92;13.35;;;3.10;99.90;;;;;;5013005;28;20030;-69
2022/12/03 10:22:00;;;;;;;39.75;13.93;;;3.20;99.90;;;;;;5011805;28;20025;-70
2022/12/03 10:24:27;;;;;;;42.42;14.07;;;3.20;99.90;;;;;;5013196;28;20092;-70
2022/12/03 10:27:01;;;;;;;36.10;13.25;;;3.30;99.90;;;;;;5015341;28;20030;-70
2022/12/03 10:29:30;;;;;;;36.70;11.85;;;3.10;99.90;;;;;;5015338;28;20022;-70
2022/12/03 10:32:01;;;;;;;38.53;14.02;;;3.10;99.90;;;;;;5015853;28;20033;-70
2022/12/03 10:34:35;;;;;;;36.28;12.45;;;3.20;99.90;;;;;;5016296;28;20026;-70
2022/12/03 10:37:19;;;;;;;37.38;12.32;;;3.20;99.90;;;;;;5015507;28;20054;-70
2022/12/03 10:39:55;;;;;;;34.88;12.48;;;3.10;99.90;;;;;;5016251;28;20099;-71
2022/12/03 10:42:22;;;;;;;30.75;12.85;;;2.90;99.90;;;;;;5016342;28;20049;-70
2022/12/03 10:44:47;;;;;;;43.08;15.23;;;3.10;99.90;;;;;;5015989;28;20034;-70
2022/12/03 10:47:13;;;;;;;37.72;13.27;;;3.20;99.90;;;;;;5016294;28;20022;-70
2022/12/03 10:49:41;;;;;;;40.08;12.85;;;3.30;99.90;;;;;;5016149;28;20026;-70
2022/12/03 10:52:21;;;;;;;39.03;13.38;;;3.20;99.90;;;;;;5016215;28;20026;-70
2022/12/03 10:54:48;;;;;;;38.13;13.80;;;3.30;99.90;;;;;;5014934;28;20030;-70
2022/12/03 10:57:14;;;;;;;36.10;14.00;;;3.40;99.90;;;;;;5015307;28;20124;-70
2022/12/03 10:59:41;;;;;;;35.60;13.18;;;3.40;99.90;;;;;;5015205;28;20109;-70
2022/12/03 11:02:22;;;;;;;37.63;13.65;;;3.40;99.90;;;;;;5015895;28;20029;-70
2022/12/03 11:04:48;;;;;;;39.38;13.38;;;3.40;99.90;;;;;;5016035;28;20097;-70
2022/12/03 11:07:16;;;;;;;42.63;13.82;;;3.20;99.90;;;;;;5015990;28;20026;-70
2022/12/03 11:09:44;;;;;;;41.08;14.10;;;3.30;99.90;;;;;;5014686;28;20018;-70
2022/12/03 11:12:22;;;;;;;37.92;13.32;;;3.20;99.90;;;;;;5014564;28;20436;-70
2022/12/03 11:14:47;;;;;;;41.08;12.65;;;3.20;99.90;;;;;;5015734;28;20088;-70
2022/12/03 11:17:33;;;;;;;37.15;13.35;;;3.30;99.90;;;;;;5015692;28;20057;-70
2022/12/03 11:19:58;;;;;;;38.45;12.95;;;3.30;99.90;;;;;;5014323;28;20029;-70
2022/12/03 11:22:27;;;;;;;36.08;12.23;;;3.40;99.90;;;;;;5015820;28;20026;-70
2022/12/03 11:25:25;;;;;;;38.17;14.20;;;3.40;99.90;;;;;;5014973;28;20030;-70
2022/12/03 11:28:12;;;;;;;34.92;13.18;;;3.30;99.90;;;;;;5003574;28;20034;-70
2022/12/03 11:30:50;;;;;;;40.78;14.90;;;3.40;99.90;;;;;;5015476;28;20034;-70
2022/12/03 11:33:23;;;;;;;41.30;13.35;;;3.40;99.90;;;;;;5014951;28;20022;-70
2022/12/03 11:36:06;;;;;;;36.80;13.45;;;3.30;99.90;;;;;;5012978;28;20026;-70
2022/12/03 11:38:48;;;;;;;37.72;13.82;;;3.30;99.90;;;;;;5015660;28;20030;-70
2022/12/03 11:41:24;;;;;;;49.50;14.32;;;3.30;99.90;;;;;;5015082;28;20026;-70
2022/12/03 11:43:56;;;;;;;42.15;14.38;;;3.40;99.90;;;;;;5014292;28;20053;-70
2022/12/03 11:46:26;;;;;;;41.38;14.35;;;3.40;99.90;;;;;;5014608;28;20030;-70
2022/12/03 11:48:53;;;;;;;44.35;14.38;;;3.40;99.90;;;;;;5013812;28;20030;-70
2022/12/03 11:51:21;;;;;;;36.80;13.55;;;3.30;99.90;;;;;;5037774;22;20133;-65
2022/12/03 11:53:49;;;;;;;38.17;13.40;;;3.30;99.90;;;;;;5014842;28;20036;-65
2022/12/03 11:56:19;;;;;;;41.63;15.18;;;3.30;99.90;;;;;;5014820;28;20022;-65
2022/12/03 11:58:46;;;;;;;42.80;14.98;;;3.40;99.90;;;;;;5014877;28;20014;-65
2022/12/03 12:01:13;;;;;;;48.30;16.17;;;3.40;99.90;;;;;;5013836;28;20022;-66
2022/12/03 12:03:45;;;;;;;42.17;14.63;;;3.30;99.90;;;;;;5015063;28;20034;-65
2022/12/03 12:06:12;;;;;;;;;;;3.20;99.90;;;;;;5014675;28;20060;-65
2022/12/03 12:08:40;;;;;;;36.47;12.50;;;3.30;99.90;;;;;;5014729;28;19912;-65
2022/12/03 12:11:17;;;;;;;47.78;14.80;;;3.10;99.90;;;;;;5013298;28;20037;-65
2022/12/03 12:13:42;;;;;;;38.80;13.88;;;3.10;99.90;;;;;;5013691;28;20037;-65
2022/12/03 12:16:08;;;;;;;36.55;14.00;;;3.20;99.90;;;;;;5014869;28;20034;-65
2022/12/03 12:18:40;;;;;;;36.17;12.68;;;3.30;99.90;;;;;;5013294;28;20036;-65
2022/12/03 12:21:46;;;;;;;42.40;16.10;;;3.30;99.90;;;;;;5013180;28;20026;-65
2022/12/03 12:24:34;;;;;;;34.97;12.30;;;3.20;99.90;;;;;;5013298;28;20156;-65
2022/12/03 12:27:05;;;;;;;39.25;13.73;;;2.90;99.90;;;;;;5014363;28;20046;-65
2022/12/03 12:29:31;;;;;;;41.35;13.88;;;2.90;99.90;;;;;;5013195;28;20029;-65
2022/12/03 12:32:17;;;;;;;34.63;12.15;;;3.00;99.90;;;;;;5013519;28;20025;-65
2022/12/03 12:34:45;;;;;;;39.17;13.07;;;3.20;99.90;;;;;;5013094;28;20484;-65
2022/12/03 12:37:15;;;;;;;38.00;14.05;;;3.30;99.90;;;;;;5013297;28;20129;-65
2022/12/03 12:39:41;;;;;;;41.83;14.45;;;3.40;99.90;;;;;;5013616;28;20030;-65
2022/12/03 12:42:29;;;;;;;43.40;13.23;;;3.40;99.90;;;;;;5014203;28;20053;-66
2022/12/03 12:45:16;;;;;;;34.40;13.43;;;3.30;99.90;;;;;;5012935;28;20481;-66
2022/12/03 12:47:47;;;;;;;31.45;12.90;;;3.40;99.90;;;;;;5012390;28;20085;-65
2022/12/03 12:50:13;;;;;;;41.85;14.13;;;3.40;99.90;;;;;;5013856;28;20030;-65
2022/12/03 12:52:49;;;;;;;41.92;14.35;;;3.30;99.90;;;;;;5014035;28;20029;-65
2022/12/03 12:55:16;;;;;;;39.58;14.32;;;3.40;99.90;;;;;;5012685;28;20026;-65
2022/12/03 12:57:42;;;;;;;41.50;14.77;;;3.40;99.90;;;;;;5014203;28;20033;-65
2022/12/03 13:00:15;;;;;;;39.20;13.10;;;3.40;99.90;;;;;;5012831;28;20116;-65
2022/12/03 13:02:55;;;;;;;42.95;15.57;;;3.50;99.90;;;;;;5012731;28;20029;-65